Time;durP1;ratioP1;P1;durP2;ratioP2;P2;SDS_P1;SDS_P2;PMS_P1;PMS_P2;Temp;Humidity;BMP_temperature;BMP_pressure;BME280_temperature;BME280_humidity;BME280_pressure;Samples;Min_cycle;Max_cycle;Signal;HPM_P1;HPM_P2
2021/10/25 00:00:24;;;;;;;11.55;5.63;;;;;;;;;;4966551;28;20550;-71
2021/10/25 00:02:50;;;;;;;10.73;5.50;;;;;;;;;;4970535;28;20396;-73
2021/10/25 00:05:17;;;;;;;8.10;4.88;;;;;;;;;;4962482;28;20026;-73
2021/10/25 00:07:43;;;;;;;10.95;5.13;;;;;;;;;;4969461;28;20429;-74
2021/10/25 00:10:11;;;;;;;9.35;4.72;;;;;;;;;;4968209;28;20376;-72
2021/10/25 00:12:41;;;;;;;8.13;4.72;;;;;;;;;;4974838;28;20027;-73
2021/10/25 00:15:07;;;;;;;7.65;4.03;;;;;;;;;;4960627;28;20046;-73
2021/10/25 00:17:33;;;;;;;6.65;3.75;;;;;;;;;;4967789;28;20110;-72
2021/10/25 00:19:59;;;;;;;6.15;3.78;;;;;;;;;;4960623;28;20194;-73
2021/10/25 00:22:26;;;;;;;4.50;3.30;;;;;;;;;;4971201;28;20046;-73
2021/10/25 00:24:52;;;;;;;5.28;3.58;;;;;;;;;;4957247;28;20027;-74
2021/10/25 00:27:20;;;;;;;7.03;3.85;;;;;;;;;;4974068;28;20034;-73
2021/10/25 00:29:46;;;;;;;7.78;3.80;;;;;;;;;;4976773;28;20030;-73
2021/10/25 00:32:12;;;;;;;8.15;3.85;;;;;;;;;;4960868;28;20053;-65
2021/10/25 00:34:38;;;;;;;8.27;3.83;;;;;;;;;;4966204;28;20022;-74
2021/10/25 00:37:05;;;;;;;5.53;3.80;;;;;;;;;;4976331;28;20033;-73
2021/10/25 00:39:31;;;;;;;6.95;3.40;;;;;;;;;;4976208;28;20019;-73
2021/10/25 00:41:58;;;;;;;9.38;4.00;;;;;;;;;;4967205;28;20047;-74
2021/10/25 00:44:24;;;;;;;7.25;3.50;;;;;;;;;;4963653;28;20082;-73
2021/10/25 00:46:50;;;;;;;7.47;3.45;;;;;;;;;;4976139;28;20038;-65
2021/10/25 00:49:18;;;;;;;6.57;3.65;;;;;;;;;;4970627;28;20027;-73
2021/10/25 00:51:45;;;;;;;5.90;3.58;;;;;;;;;;4974359;28;20151;-73
2021/10/25 00:54:11;;;;;;;7.00;3.50;;;;;;;;;;4960225;28;20027;-74
2021/10/25 00:56:41;;;;;;;7.50;3.83;;;;;;;;;;4976745;28;20050;-72
2021/10/25 00:59:08;;;;;;;6.35;3.53;;;;;;;;;;4976444;28;20412;-73
2021/10/25 01:01:34;;;;;;;5.18;3.38;;;;;;;;;;4973453;28;20069;-74
2021/10/25 01:04:01;;;;;;;8.07;3.60;;;;;;;;;;4969732;28;20019;-74
2021/10/25 01:06:28;;;;;;;6.72;3.60;;;;;;;;;;4978153;28;20117;-69
2021/10/25 01:08:55;;;;;;;6.00;3.35;;;;;;;;;;4965294;28;20026;-74
2021/10/25 01:11:22;;;;;;;6.82;3.50;;;;;;;;;;4976794;28;20027;-73
2021/10/25 01:13:50;;;;;;;6.35;3.20;;;;;;;;;;4958314;28;20024;-74
2021/10/25 01:16:16;;;;;;;6.88;4.00;;;;;;;;;;4956252;28;20118;-74
2021/10/25 01:18:45;;;;;;;7.65;3.78;;;;;;;;;;4974206;28;20030;-72
2021/10/25 01:21:11;;;;;;;7.88;3.75;;;;;;;;;;4975502;28;20027;-67
2021/10/25 01:23:40;;;;;;;7.72;3.70;;;;;;;;;;4970414;28;20043;-70
2021/10/25 01:26:06;;;;;;;7.53;3.90;;;;;;;;;;4962065;28;20032;-73
2021/10/25 01:28:34;;;;;;;7.30;3.60;;;;;;;;;;4971052;28;20034;-74
2021/10/25 01:31:00;;;;;;;6.35;3.80;;;;;;;;;;4975339;28;20015;-69
2021/10/25 01:33:29;;;;;;;7.75;4.28;;;;;;;;;;4965517;28;20047;-73
2021/10/25 01:35:55;;;;;;;11.95;4.00;;;;;;;;;;4951572;28;20421;-74
2021/10/25 01:38:22;;;;;;;9.52;4.10;;;;;;;;;;4975164;28;20035;-72
2021/10/25 01:40:48;;;;;;;7.18;4.13;;;;;;;;;;4970576;28;20038;-67
2021/10/25 01:43:14;;;;;;;7.15;4.45;;;;;;;;;;4970684;28;20128;-73
2021/10/25 01:45:40;;;;;;;10.35;5.45;;;;;;;;;;4962756;28;20043;-71
2021/10/25 01:48:07;;;;;;;10.32;5.80;;;;;;;;;;4969298;28;20031;-74
2021/10/25 01:50:33;;;;;;;11.95;6.80;;;;;;;;;;4965865;28;20016;-73
2021/10/25 01:53:03;;;;;;;13.27;7.43;;;;;;;;;;4964180;28;20039;-73
2021/10/25 01:55:29;;;;;;;13.07;7.13;;;;;;;;;;4967197;28;20034;-65
2021/10/25 01:57:56;;;;;;;13.73;8.77;;;;;;;;;;4960873;28;20039;-74
2021/10/25 02:00:23;;;;;;;15.30;8.40;;;;;;;;;;4963724;28;20046;-66
2021/10/25 02:02:51;;;;;;;15.60;8.82;;;;;;;;;;4965842;28;20055;-68
2021/10/25 02:05:18;;;;;;;15.68;9.10;;;;;;;;;;4952252;29;20031;-65
2021/10/25 02:07:44;;;;;;;14.65;9.20;;;;;;;;;;4958976;28;20098;-73
2021/10/25 02:10:14;;;;;;;13.93;9.07;;;;;;;;;;4971409;28;20031;-73
2021/10/25 02:12:42;;;;;;;14.65;9.38;;;;;;;;;;4960628;28;20050;-70
2021/10/25 02:15:08;;;;;;;15.18;9.90;;;;;;;;;;4958493;28;20034;-67
2021/10/25 02:17:34;;;;;;;14.38;9.02;;;;;;;;;;4963810;28;20101;-68
2021/10/25 02:20:01;;;;;;;15.45;9.85;;;;;;;;;;4977117;28;20022;-66
2021/10/25 02:22:27;;;;;;;18.15;9.95;;;;;;;;;;4968745;28;20031;-64
2021/10/25 02:24:53;;;;;;;16.77;10.00;;;;;;;;;;4970219;28;20019;-68
2021/10/25 02:27:19;;;;;;;17.20;9.73;;;;;;;;;;4968202;28;20042;-66
2021/10/25 02:29:46;;;;;;;18.10;10.32;;;;;;;;;;4965137;28;20027;-73
2021/10/25 02:32:18;;;;;;;16.65;10.52;;;;;;;;;;4965618;28;20197;-74
2021/10/25 02:34:45;;;;;;;17.05;10.60;;;;;;;;;;4967736;28;20092;-74
2021/10/25 02:37:11;;;;;;;21.67;12.10;;;;;;;;;;4971736;28;20042;-73
2021/10/25 02:39:38;;;;;;;20.00;11.52;;;;;;;;;;4977512;28;20501;-73
2021/10/25 02:42:04;;;;;;;17.80;11.38;;;;;;;;;;4962379;28;20027;-73
2021/10/25 02:44:31;;;;;;;19.77;11.88;;;;;;;;;;4962474;28;20425;-74
2021/10/25 02:46:57;;;;;;;19.38;11.68;;;;;;;;;;4976209;28;20022;-73
2021/10/25 02:49:23;;;;;;;21.45;12.07;;;;;;;;;;4966053;28;20432;-73
2021/10/25 02:51:53;;;;;;;16.27;11.60;;;;;;;;;;4974815;28;20098;-71
2021/10/25 02:54:20;;;;;;;20.48;11.80;;;;;;;;;;4961758;28;20137;-65
2021/10/25 02:56:49;;;;;;;18.80;12.07;;;;;;;;;;4973869;28;20101;-73
2021/10/25 02:59:15;;;;;;;22.23;12.20;;;;;;;;;;4963076;28;20070;-73
2021/10/25 03:01:42;;;;;;;26.15;12.38;;;;;;;;;;4964517;28;20026;-66
2021/10/25 03:04:11;;;;;;;16.13;11.63;;;;;;;;;;4964357;28;20039;-73
2021/10/25 03:06:37;;;;;;;19.00;11.55;;;;;;;;;;4970725;28;20114;-73
2021/10/25 03:09:05;;;;;;;22.30;12.05;;;;;;;;;;4962252;28;20421;-67
2021/10/25 03:11:31;;;;;;;20.40;11.75;;;;;;;;;;4969309;28;20022;-73
2021/10/25 03:13:57;;;;;;;17.95;11.50;;;;;;;;;;4965045;28;20392;-73
2021/10/25 03:16:27;;;;;;;19.25;11.60;;;;;;;;;;4968087;28;20042;-74
2021/10/25 03:18:54;;;;;;;18.58;12.02;;;;;;;;;;4960535;28;20489;-74
2021/10/25 03:21:22;;;;;;;19.20;11.43;;;;;;;;;;4954200;28;20043;-73
2021/10/25 03:23:49;;;;;;;18.63;11.73;;;;;;;;;;4958192;28;20404;-73
2021/10/25 03:26:16;;;;;;;18.45;10.80;;;;;;;;;;4960589;28;20085;-72
2021/10/25 03:28:43;;;;;;;16.92;10.93;;;;;;;;;;4971294;28;20027;-74
2021/10/25 03:31:10;;;;;;;16.50;10.88;;;;;;;;;;4965654;28;20034;-73
2021/10/25 03:33:36;;;;;;;20.75;12.80;;;;;;;;;;4960576;28;20093;-72
2021/10/25 03:36:04;;;;;;;21.30;12.55;;;;;;;;;;4961552;28;20242;-74
2021/10/25 03:38:32;;;;;;;19.35;13.35;;;;;;;;;;4975112;28;20384;-74
2021/10/25 03:40:58;;;;;;;20.83;13.00;;;;;;;;;;4971702;28;20510;-66
2021/10/25 03:43:28;;;;;;;20.60;12.32;;;;;;;;;;4958825;28;20062;-72
2021/10/25 03:46:19;;;;;;;17.60;13.18;;;;;;;;;;4967198;28;20496;-65
2021/10/25 03:48:57;;;;;;;21.92;13.20;;;;;;;;;;4962480;28;20049;-71
2021/10/25 03:51:24;;;;;;;18.15;11.25;;;;;;;;;;4966009;28;20022;-72
2021/10/25 04:28:38;;;;;;;22.23;12.02;;;;;;;;;;4976385;28;20034;-72
2021/10/25 04:31:05;;;;;;;16.20;11.38;;;;;;;;;;4972149;28;20210;-70
2021/10/25 04:33:31;;;;;;;19.88;12.18;;;;;;;;;;4967489;28;20058;-73
2021/10/25 04:35:57;;;;;;;21.90;13.18;;;;;;;;;;4976426;28;20029;-70
2021/10/25 04:38:23;;;;;;;22.00;12.90;;;;;;;;;;4974995;28;20038;-68
2021/10/25 04:40:49;;;;;;;21.60;12.38;;;;;;;;;;4970945;28;20023;-73
2021/10/25 04:43:16;;;;;;;18.48;11.10;;;;;;;;;;4974116;28;20105;-72
2021/10/25 04:45:42;;;;;;;19.92;11.77;;;;;;;;;;4964948;28;20058;-65
2021/10/25 04:48:09;;;;;;;15.95;11.35;;;;;;;;;;4962294;28;20074;-70
2021/10/25 04:50:37;;;;;;;21.52;13.15;;;;;;;;;;4967322;28;20511;-66
2021/10/25 04:53:03;;;;;;;20.92;13.25;;;;;;;;;;4968927;28;20057;-69
2021/10/25 04:55:29;;;;;;;24.08;15.77;;;;;;;;;;4963018;28;20031;-74
2021/10/25 04:57:55;;;;;;;27.60;17.30;;;;;;;;;;4971152;28;20083;-74
2021/10/25 05:00:21;;;;;;;97.70;48.25;;;;;;;;;;4969910;28;20059;-71
2021/10/25 05:02:50;;;;;;;42.17;25.00;;;;;;;;;;4966672;28;20054;-69
2021/10/25 05:05:16;;;;;;;30.60;18.45;;;;;;;;;;4974338;28;20023;-73
2021/10/25 05:07:42;;;;;;;33.00;18.05;;;;;;;;;;4965679;28;20027;-73
2021/10/25 05:10:09;;;;;;;33.72;18.90;;;;;;;;;;4972662;28;20031;-73
2021/10/25 05:12:35;;;;;;;36.97;21.88;;;;;;;;;;4971884;28;20026;-69
2021/10/25 05:15:01;;;;;;;30.90;21.73;;;;;;;;;;4958516;28;20023;-74
2021/10/25 05:17:27;;;;;;;31.67;21.65;;;;;;;;;;4955130;28;20047;-74
2021/10/25 05:19:56;;;;;;;32.63;21.27;;;;;;;;;;4955628;28;20035;-73
2021/10/25 05:22:23;;;;;;;29.63;19.23;;;;;;;;;;4957441;28;20051;-74
2021/10/25 05:24:49;;;;;;;31.83;20.23;;;;;;;;;;4954837;29;20397;-73
2021/10/25 05:27:18;;;;;;;31.60;21.05;;;;;;;;;;4963008;28;20498;-74
2021/10/25 05:29:44;;;;;;;30.40;20.88;;;;;;;;;;4971102;28;20122;-67
2021/10/25 05:32:10;;;;;;;31.90;20.25;;;;;;;;;;4964639;28;20046;-69
2021/10/25 05:34:37;;;;;;;34.97;20.75;;;;;;;;;;4956251;28;20074;-74
2021/10/25 05:37:03;;;;;;;31.27;19.77;;;;;;;;;;4956687;28;20045;-69
2021/10/25 05:39:29;;;;;;;32.55;22.63;;;;;;;;;;4971112;28;20026;-73
2021/10/25 05:41:55;;;;;;;37.30;21.85;;;;;;;;;;4979688;28;20113;-70
2021/10/25 05:44:24;;;;;;;35.53;21.63;;;;;;;;;;4971387;28;20058;-77
2021/10/25 05:46:50;;;;;;;34.63;22.05;;;;;;;;;;4968103;29;20038;-79
2021/10/25 05:49:16;;;;;;;34.33;22.45;;;;;;;;;;4982075;28;20098;-75
2021/10/25 05:51:42;;;;;;;33.63;21.35;;;;;;;;;;4986866;28;20030;-73
2021/10/25 05:54:08;;;;;;;33.42;20.77;;;;;;;;;;4969276;28;20023;-73
2021/10/25 05:56:36;;;;;;;33.95;23.30;;;;;;;;;;4980385;28;20037;-72
2021/10/25 05:59:04;;;;;;;32.30;20.40;;;;;;;;;;4968123;28;20069;-76
2021/10/25 06:01:44;;;;;;;29.08;17.23;;;;;;;;;;4978382;28;20031;-76
2021/10/25 06:04:12;;;;;;;31.45;17.55;;;;;;;;;;4962828;29;20028;-78
2021/10/25 06:06:39;;;;;;;24.55;13.93;;;;;;;;;;4975540;28;20091;-72
2021/10/25 06:09:05;;;;;;;24.23;13.18;;;;;;;;;;4976261;28;20058;-78
2021/10/25 06:11:34;;;;;;;18.25;11.02;;;;;;;;;;4969607;28;20024;-74
2021/10/25 06:14:02;;;;;;;18.08;10.52;;;;;;;;;;4956962;28;20032;-78
2021/10/25 06:16:42;;;;;;;22.02;11.15;;;;;;;;;;4967116;28;20059;-73
2021/10/25 06:19:11;;;;;;;19.75;9.32;;;;;;;;;;4962194;28;20444;-75
2021/10/25 06:21:37;;;;;;;17.43;9.90;;;;;;;;;;4959582;28;20031;-74
2021/10/25 06:24:03;;;;;;;20.58;9.65;;;;;;;;;;4963294;28;20109;-76
2021/10/25 06:26:30;;;;;;;19.92;10.20;;;;;;;;;;4956314;29;20381;-76
2021/10/25 06:28:56;;;;;;;16.83;9.80;;;;;;;;;;4960419;28;20027;-70
2021/10/25 06:31:25;;;;;;;19.17;10.10;;;;;;;;;;4968667;28;20397;-76
2021/10/25 06:33:51;;;;;;;22.15;12.80;;;;;;;;;;4951188;29;20102;-75
2021/10/25 06:36:20;;;;;;;18.15;11.32;;;;;;;;;;4956599;28;20152;-73
2021/10/25 06:41:15;;;;;;;19.15;10.90;;;;;;;;;;4975033;28;20053;-74
2021/10/25 06:43:41;;;;;;;16.40;10.52;;;;;;;;;;4965201;28;20058;-76
2021/10/25 06:46:07;;;;;;;19.08;10.95;;;;;;;;;;4957873;29;20055;-75
2021/10/25 06:48:34;;;;;;;21.08;12.48;;;;;;;;;;4954403;28;20125;-75
2021/10/25 06:51:00;;;;;;;18.15;11.00;;;;;;;;;;4971643;28;20026;-74
2021/10/25 06:53:30;;;;;;;21.67;11.70;;;;;;;;;;4967864;28;20027;-70
2021/10/25 06:55:59;;;;;;;19.52;11.18;;;;;;;;;;4968403;28;20023;-72
2021/10/25 06:58:25;;;;;;;21.83;12.25;;;;;;;;;;4970233;28;20061;-73
2021/10/25 07:00:51;;;;;;;22.70;11.80;;;;;;;;;;4955719;28;20035;-74
2021/10/25 07:03:18;;;;;;;18.77;11.57;;;;;;;;;;4969281;28;20523;-73
2021/10/25 07:05:44;;;;;;;22.52;11.15;;;;;;;;;;4974134;28;20038;-71
2021/10/25 07:08:14;;;;;;;18.15;11.32;;;;;;;;;;4964686;28;20102;-69
2021/10/25 07:10:40;;;;;;;17.40;10.20;;;;;;;;;;4964064;28;20081;-74
2021/10/25 07:13:07;;;;;;;18.90;11.18;;;;;;;;;;4958567;28;20035;-74
2021/10/25 07:15:37;;;;;;;19.42;10.75;;;;;;;;;;4957441;28;20501;-75
2021/10/25 07:18:16;;;;;;;18.08;11.32;;;;;;;;;;4953814;29;20031;-76
2021/10/25 07:23:33;;;;;;;18.33;9.55;;;;;;;;;;4954510;28;20067;-76
2021/10/25 08:10:01;;;;;;;17.23;10.45;;;;;;;;;;4962385;28;20098;-73
2021/10/25 08:12:30;;;;;;;19.77;10.68;;;;;;;;;;4952096;28;20035;-77
2021/10/25 08:15:01;;;;;;;18.45;10.77;;;;;;;;;;4959869;28;20123;-73
2021/10/25 08:17:59;;;;;;;17.25;11.23;;;;;;;;;;4967368;28;20500;-76
2021/10/25 08:20:50;;;;;;;17.88;10.75;;;;;;;;;;4955048;29;20046;-71
2021/10/25 08:23:16;;;;;;;17.52;9.98;;;;;;;;;;4964738;28;20035;-70
2021/10/25 08:25:42;;;;;;;14.52;10.35;;;;;;;;;;4967675;28;20109;-71
2021/10/25 08:28:44;;;;;;;20.30;11.32;;;;;;;;;;4975805;28;20030;-70
2021/10/25 08:31:12;;;;;;;18.55;10.55;;;;;;;;;;4965414;28;20445;-71
2021/10/25 08:33:49;;;;;;;29.00;11.68;;;;;;;;;;4968132;28;20098;-71
2021/10/25 08:36:25;;;;;;;19.60;10.82;;;;;;;;;;4960632;28;20078;-72
2021/10/25 08:41:36;;;;;;;17.58;11.20;;;;;;;;;;4945137;28;20090;-73
2021/10/25 08:44:09;;;;;;;19.17;10.75;;;;;;;;;;4958444;28;20098;-72
2021/10/25 08:46:35;;;;;;;18.98;9.98;;;;;;;;;;4957332;28;20034;-72
2021/10/25 08:49:01;;;;;;;23.65;11.05;;;;;;;;;;4975052;28;20034;-72
2021/10/25 08:51:29;;;;;;;18.95;11.00;;;;;;;;;;4962249;28;20535;-73
2021/10/25 08:53:57;;;;;;;16.92;11.23;;;;;;;;;;4969439;28;20031;-73
2021/10/25 08:56:23;;;;;;;21.05;10.43;;;;;;;;;;4963045;28;20032;-77
2021/10/25 08:58:52;;;;;;;18.15;11.15;;;;;;;;;;4956392;28;20031;-74
2021/10/25 09:01:34;;;;;;;22.92;10.85;;;;;;;;;;4956280;28;20023;-73
2021/10/25 09:04:11;;;;;;;20.55;11.13;;;;;;;;;;4951879;28;20101;-76
2021/10/25 09:06:57;;;;;;;22.63;10.82;;;;;;;;;;4965523;28;20086;-79
2021/10/25 09:09:24;;;;;;;17.58;11.07;;;;;;;;;;4978386;28;20066;-74
2021/10/25 09:11:56;;;;;;;15.40;10.75;;;;;;;;;;4963031;28;20389;-73
2021/10/25 09:14:24;;;;;;;25.30;11.20;;;;;;;;;;4956714;28;20037;-72
2021/10/25 09:17:00;;;;;;;21.02;11.35;;;;;;;;;;4960930;28;20121;-71
2021/10/25 09:19:29;;;;;;;21.33;11.40;;;;;;;;;;4956180;28;20037;-74
2021/10/25 09:22:31;;;;;;;14.65;10.65;;;;;;;;;;4957734;28;20484;-72
2021/10/25 09:24:59;;;;;;;17.98;10.68;;;;;;;;;;4963843;28;20031;-72
2021/10/25 09:27:30;;;;;;;14.80;9.73;;;;;;;;;;4956219;28;20027;-71
2021/10/25 09:30:03;;;;;;;22.35;10.85;;;;;;;;;;4956129;28;20122;-71
2021/10/25 09:32:52;;;;;;;20.77;10.95;;;;;;;;;;4956348;28;20047;-71
2021/10/25 09:35:30;;;;;;;15.40;10.40;;;;;;;;;;4910474;29;20498;-75
2021/10/25 09:38:01;;;;;;;16.88;10.30;;;;;;;;;;4914432;29;20439;-72
2021/10/25 09:46:34;;;;;;;15.20;10.07;;;;;;;;;;4875718;29;20547;-70
2021/10/25 09:51:56;;;;;;;22.02;10.15;;;;;;;;;;4877491;29;20037;-75
2021/10/25 09:54:23;;;;;;;27.35;10.13;;;;;;;;;;4876699;29;20149;-76
2021/10/25 09:57:09;;;;;;;18.20;9.45;;;;;;;;;;4874238;29;20515;-74
2021/10/25 09:59:49;;;;;;;13.65;9.98;;;;;;;;;;4878699;29;20116;-73
2021/10/25 10:02:15;;;;;;;19.30;10.27;;;;;;;;;;4875424;29;20036;-75
2021/10/25 10:04:42;;;;;;;21.48;10.10;;;;;;;;;;4878546;29;20037;-74
2021/10/25 10:07:11;;;;;;;26.48;10.30;;;;;;;;;;4876984;29;20120;-75
2021/10/25 10:09:38;;;;;;;19.48;9.98;;;;;;;;;;4869085;29;20060;-74
2021/10/25 10:12:04;;;;;;;19.58;10.75;;;;;;;;;;4886100;29;20075;-76
2021/10/25 10:14:30;;;;;;;14.52;9.65;;;;;;;;;;4897979;29;20443;-77
2021/10/25 10:16:57;;;;;;;17.35;9.60;;;;;;;;;;4886298;29;20040;-76
2021/10/25 10:19:24;;;;;;;16.33;8.30;;;;;;;;;;4903001;29;20440;-75
2021/10/25 10:21:52;;;;;;;20.25;8.82;;;;;;;;;;4933798;29;20027;-71
2021/10/25 10:24:21;;;;;;;23.02;9.40;;;;;;;;;;4959703;28;20061;-73
2021/10/25 10:26:57;;;;;;;15.68;7.60;;;;;;;;;;4970666;28;20079;-75
2021/10/25 10:29:24;;;;;;;16.00;8.18;;;;;;;;;;4964957;28;20054;-73
2021/10/25 10:32:04;;;;;;;14.43;8.20;;;;;;;;;;4974316;28;20077;-74
2021/10/25 10:34:38;;;;;;;12.68;7.97;;;;;;;;;;4967113;28;20031;-75
2021/10/25 10:37:14;;;;;;;19.70;7.85;;;;;;;;;;4964485;28;20046;-72
2021/10/25 10:39:40;;;;;;;22.95;13.38;;;;;;;;;;4964891;28;20381;-73
2021/10/25 10:42:07;;;;;;;13.63;9.05;;;;;;;;;;4965828;28;20388;-75
2021/10/25 10:44:35;;;;;;;22.33;10.95;;;;;;;;;;4965225;28;20023;-74
2021/10/25 10:47:12;;;;;;;22.52;11.98;;;;;;;;;;4970123;28;20397;-69
2021/10/25 10:49:55;;;;;;;20.65;12.77;;;;;;;;;;4974250;28;20035;-69
2021/10/25 10:52:43;;;;;;;16.67;9.23;;;;;;;;;;4964065;29;20035;-69
2021/10/25 10:55:32;;;;;;;23.02;10.60;;;;;;;;;;4969385;29;20004;-69
2021/10/25 11:00:31;;;;;;;16.17;9.15;;;;;;;;;;4967872;28;20432;-73
2021/10/25 11:03:09;;;;;;;13.38;8.25;;;;;;;;;;4959955;28;20050;-71
2021/10/25 11:05:43;;;;;;;15.75;7.72;;;;;;;;;;4962306;28;20058;-74
2021/10/25 11:08:31;;;;;;;17.40;7.75;;;;;;;;;;4964669;28;20031;-74
2021/10/25 11:11:00;;;;;;;19.90;11.07;;;;;;;;;;4956435;28;20093;-70
2021/10/25 11:13:27;;;;;;;19.42;10.35;;;;;;;;;;4971019;28;20400;-77
2021/10/25 11:16:06;;;;;;;17.00;9.02;;;;;;;;;;4957744;28;20031;-76
2021/10/25 11:18:34;;;;;;;13.77;7.38;;;;;;;;;;4967559;28;20020;-75
2021/10/25 11:21:28;;;;;;;18.10;7.55;;;;;;;;;;4977967;28;20034;-75
2021/10/25 11:24:00;;;;;;;14.85;8.88;;;;;;;;;;4957778;28;20100;-77
2021/10/25 11:26:38;;;;;;;14.05;8.48;;;;;;;;;;4957676;28;20028;-70
2021/10/25 11:29:14;;;;;;;17.38;8.80;;;;;;;;;;4957159;28;20019;-75
2021/10/25 11:31:45;;;;;;;17.85;7.53;;;;;;;;;;4956890;28;20042;-76
2021/10/25 11:34:23;;;;;;;14.40;8.25;;;;;;;;;;4955310;28;20058;-71
2021/10/25 11:37:05;;;;;;;13.07;7.35;;;;;;;;;;4952524;29;20019;-71
2021/10/25 11:39:37;;;;;;;14.50;7.63;;;;;;;;;;4961940;28;20027;-75
2021/10/25 11:42:07;;;;;;;18.27;7.47;;;;;;;;;;4962838;29;20031;-75
2021/10/25 11:44:33;;;;;;;14.75;7.53;;;;;;;;;;4966711;28;20035;-71
2021/10/25 11:46:59;;;;;;;10.98;7.25;;;;;;;;;;4952381;29;20031;-72
2021/10/25 11:49:26;;;;;;;13.15;7.40;;;;;;;;;;4956240;28;20118;-71
2021/10/25 11:51:55;;;;;;;11.18;7.03;;;;;;;;;;4954808;28;20106;-71
2021/10/25 11:54:21;;;;;;;13.68;8.05;;;;;;;;;;4953533;28;20042;-71
2021/10/25 11:56:52;;;;;;;14.13;7.82;;;;;;;;;;4966351;28;20756;-76
2021/10/25 11:59:19;;;;;;;14.55;7.20;;;;;;;;;;4959170;28;20035;-71
2021/10/25 12:01:49;;;;;;;28.40;8.48;;;;;;;;;;4963901;28;20481;-72
2021/10/25 12:04:16;;;;;;;11.95;7.18;;;;;;;;;;4961727;28;20095;-74
2021/10/25 12:06:54;;;;;;;19.20;7.65;;;;;;;;;;4964290;28;20023;-76
2021/10/25 12:09:21;;;;;;;18.08;8.15;;;;;;;;;;4973767;28;20046;-73
2021/10/25 12:11:54;;;;;;;14.35;8.35;;;;;;;;;;4969220;28;20524;-72
2021/10/25 12:14:33;;;;;;;46.78;19.23;;;;;;;;;;4964571;28;20031;-74
2021/10/25 12:16:59;;;;;;;16.48;7.90;;;;;;;;;;4958960;28;20043;-76
2021/10/25 12:19:27;;;;;;;9.43;6.63;;;;;;;;;;4968668;28;20037;-73
2021/10/25 12:21:53;;;;;;;11.98;7.38;;;;;;;;;;4967390;28;20023;-74
2021/10/25 12:24:21;;;;;;;13.20;6.35;;;;;;;;;;4963226;28;20047;-72
2021/10/25 12:27:01;;;;;;;14.27;6.97;;;;;;;;;;4957686;28;20039;-75
2021/10/25 12:29:27;;;;;;;12.05;7.25;;;;;;;;;;4977146;28;20057;-74
2021/10/25 12:31:55;;;;;;;12.82;7.50;;;;;;;;;;4978718;28;20018;-74
2021/10/25 12:34:21;;;;;;;11.00;6.95;;;;;;;;;;4972490;28;20042;-74
2021/10/25 12:36:47;;;;;;;12.20;6.70;;;;;;;;;;4965786;28;20027;-75
2021/10/25 12:39:14;;;;;;;14.95;6.90;;;;;;;;;;4974397;28;20030;-75
2021/10/25 12:41:50;;;;;;;9.27;6.70;;;;;;;;;;4979994;28;20077;-75
2021/10/25 12:44:36;;;;;;;11.40;7.10;;;;;;;;;;4981454;28;20045;-74
2021/10/25 12:47:06;;;;;;;14.85;6.70;;;;;;;;;;4965900;28;20114;-76
2021/10/25 12:49:32;;;;;;;13.27;7.40;;;;;;;;;;4977993;28;20027;-75
2021/10/25 12:52:03;;;;;;;11.60;7.57;;;;;;;;;;4981065;28;20053;-75
2021/10/25 12:54:32;;;;;;;18.85;8.05;;;;;;;;;;4970790;28;20075;-72
2021/10/25 12:57:01;;;;;;;15.20;7.05;;;;;;;;;;4978136;28;20064;-75
2021/10/25 12:59:28;;;;;;;15.88;10.52;;;;;;;;;;4960202;29;20039;-74
2021/10/25 13:01:55;;;;;;;14.30;7.63;;;;;;;;;;4961110;28;20478;-75
2021/10/25 13:04:22;;;;;;;12.45;7.47;;;;;;;;;;4972445;28;20078;-73
2021/10/25 13:06:49;;;;;;;12.07;6.65;;;;;;;;;;4981985;28;20026;-76
2021/10/25 13:09:15;;;;;;;11.82;6.88;;;;;;;;;;4981237;28;20053;-76
2021/10/25 13:11:45;;;;;;;10.77;7.00;;;;;;;;;;4969634;28;20031;-77
2021/10/25 13:14:12;;;;;;;16.80;6.90;;;;;;;;;;4965476;28;20047;-74
2021/10/25 13:16:45;;;;;;;15.43;7.15;;;;;;;;;;4975195;28;20027;-75
2021/10/25 13:19:11;;;;;;;;;;;;;;;;;;4973800;28;20028;-76
2021/10/25 13:21:37;;;;;;;11.15;6.93;;;;;;;;;;4973622;28;20273;-75
2021/10/25 13:24:04;;;;;;;16.63;7.25;;;;;;;;;;4958820;28;20039;-75
2021/10/25 13:26:31;;;;;;;12.43;7.03;;;;;;;;;;4969371;28;20031;-75
2021/10/25 13:28:58;;;;;;;16.95;7.50;;;;;;;;;;4976958;28;20033;-75
2021/10/25 13:31:24;;;;;;;17.90;7.72;;;;;;;;;;4968235;28;20498;-75
2021/10/25 13:33:50;;;;;;;14.07;7.50;;;;;;;;;;4968017;28;20054;-74
2021/10/25 13:36:16;;;;;;;13.40;7.47;;;;;;;;;;4976431;28;20085;-72
2021/10/25 13:38:42;;;;;;;19.30;7.07;;;;;;;;;;4973151;28;20030;-75
2021/10/25 13:41:09;;;;;;;13.65;7.35;;;;;;;;;;4968759;28;20019;-76
2021/10/25 13:43:35;;;;;;;14.18;7.93;;;;;;;;;;4973114;28;20047;-75
2021/10/25 13:46:01;;;;;;;11.05;8.05;;;;;;;;;;4958671;28;20086;-76
2021/10/25 13:48:27;;;;;;;11.88;7.38;;;;;;;;;;4974401;28;20516;-71
2021/10/25 13:50:55;;;;;;;14.93;7.93;;;;;;;;;;4969964;28;20050;-69
2021/10/25 13:53:22;;;;;;;10.07;7.00;;;;;;;;;;4970105;28;20093;-73
2021/10/25 13:55:48;;;;;;;10.38;7.22;;;;;;;;;;4962949;28;20027;-75
2021/10/25 13:58:14;;;;;;;17.20;7.20;;;;;;;;;;4974748;28;20089;-73
2021/10/25 14:00:40;;;;;;;15.45;6.90;;;;;;;;;;4977102;28;20057;-74
2021/10/25 14:03:08;;;;;;;11.98;7.18;;;;;;;;;;4962289;28;20051;-75
2021/10/25 14:05:34;;;;;;;16.65;6.95;;;;;;;;;;4965309;28;20035;-74
2021/10/25 14:08:01;;;;;;;12.65;6.75;;;;;;;;;;4968076;28;20066;-76
2021/10/25 14:12:56;;;;;;;15.38;6.47;;;;;;;;;;4968420;28;20489;-75
2021/10/25 14:15:30;;;;;;;13.05;6.68;;;;;;;;;;4963156;28;20115;-75
2021/10/25 14:17:58;;;;;;;;;;;;;;;;;;4977038;28;20077;-74
2021/10/25 14:20:26;;;;;;;9.65;6.18;;;;;;;;;;4992748;28;19894;-74
2021/10/25 14:22:55;;;;;;;14.40;6.70;;;;;;;;;;4993654;28;20046;-65
2021/10/25 14:25:23;;;;;;;16.80;6.22;;;;;;;;;;4967435;28;20441;-72
2021/10/25 14:27:49;;;;;;;10.82;7.38;;;;;;;;;;4958478;28;20052;-74
2021/10/25 14:30:16;;;;;;;14.40;8.20;;;;;;;;;;4970602;28;20035;-74
2021/10/25 14:32:43;;;;;;;13.80;8.23;;;;;;;;;;4964135;28;20094;-74
2021/10/25 14:35:09;;;;;;;15.38;7.60;;;;;;;;;;4975764;28;20039;-79
2021/10/25 14:37:40;;;;;;;11.40;6.85;;;;;;;;;;4970552;28;20027;-77
2021/10/25 14:40:11;;;;;;;13.13;7.55;;;;;;;;;;4976661;28;20523;-74
2021/10/25 14:42:50;;;;;;;20.00;8.70;;;;;;;;;;4967079;28;20046;-66
2021/10/25 14:45:21;;;;;;;13.90;7.35;;;;;;;;;;4967919;28;20185;-78
2021/10/25 14:53:27;;;;;;;10.65;6.47;;;;;;;;;;4965312;28;20109;-73
2021/10/25 14:56:05;;;;;;;12.40;6.75;;;;;;;;;;4981490;28;20027;-76
2021/10/25 14:58:32;;;;;;;10.02;6.00;;;;;;;;;;4951794;28;20070;-73
2021/10/25 15:00:59;;;;;;;14.18;6.88;;;;;;;;;;4979307;28;20027;-80
2021/10/25 15:03:26;;;;;;;13.43;7.65;;;;;;;;;;4976097;28;20038;-78
2021/10/25 15:05:56;;;;;;;12.80;7.32;;;;;;;;;;4968860;29;20537;-77
2021/10/25 15:08:23;;;;;;;16.40;6.60;;;;;;;;;;4976493;28;21842;-78
2021/10/25 15:10:50;;;;;;;14.13;6.50;;;;;;;;;;4973245;28;20014;-79
2021/10/25 15:13:16;;;;;;;13.40;7.13;;;;;;;;;;4999197;28;20039;-68
2021/10/25 15:15:42;;;;;;;17.65;9.68;;;;;;;;;;4997121;28;20027;-76
2021/10/25 15:18:09;;;;;;;14.73;7.53;;;;;;;;;;4998035;28;20030;-69
2021/10/25 15:20:36;;;;;;;17.48;8.45;;;;;;;;;;4999330;28;20011;-69
2021/10/25 15:23:04;;;;;;;20.48;10.85;;;;;;;;;;4988703;28;20018;-72
2021/10/25 15:25:42;;;;;;;19.70;9.90;;;;;;;;;;4979524;28;20047;-71
2021/10/25 15:28:09;;;;;;;35.92;21.25;;;;;;;;;;4979837;28;20028;-75
2021/10/25 15:30:38;;;;;;;25.42;13.02;;;;;;;;;;4986059;28;20015;-67
2021/10/25 15:33:08;;;;;;;26.63;15.48;;;;;;;;;;5107505;23;20057;-79
2021/10/25 15:35:35;;;;;;;20.33;10.80;;;;;;;;;;5015413;28;20464;-76
2021/10/25 15:38:02;;;;;;;18.52;11.73;;;;;;;;;;5015600;28;20153;-77
2021/10/25 15:40:29;;;;;;;13.70;8.80;;;;;;;;;;5008425;28;20030;-76
2021/10/25 15:42:56;;;;;;;18.30;9.63;;;;;;;;;;5013752;28;20034;-76
2021/10/25 15:45:22;;;;;;;19.73;12.45;;;;;;;;;;5007154;28;20487;-76
2021/10/25 15:47:48;;;;;;;23.80;12.98;;;;;;;;;;5017555;28;20113;-76
2021/10/25 15:50:17;;;;;;;23.13;12.50;;;;;;;;;;5015329;28;20468;-73
2021/10/25 15:52:43;;;;;;;20.35;10.38;;;;;;;;;;5018233;28;20088;-76
2021/10/25 15:55:11;;;;;;;20.05;11.13;;;;;;;;;;5019068;28;20022;-77
2021/10/25 15:57:37;;;;;;;22.52;12.68;;;;;;;;;;5004977;28;20033;-77
2021/10/25 16:00:07;;;;;;;28.40;13.85;;;;;;;;;;5023008;28;20056;-77
2021/10/25 16:02:33;;;;;;;22.67;11.88;;;;;;;;;;5005924;28;20041;-77
2021/10/25 16:04:59;;;;;;;22.08;11.38;;;;;;;;;;5018089;28;20456;-75
2021/10/25 16:07:25;;;;;;;22.58;12.25;;;;;;;;;;5020113;28;20026;-75
2021/10/25 16:10:01;;;;;;;20.75;12.05;;;;;;;;;;4996005;28;20042;-76
2021/10/25 16:12:28;;;;;;;22.33;10.55;;;;;;;;;;4995843;28;20113;-77
2021/10/25 16:14:54;;;;;;;22.80;10.98;;;;;;;;;;5012514;28;20084;-72
2021/10/25 16:17:20;;;;;;;26.00;13.13;;;;;;;;;;5014972;28;20149;-74
2021/10/25 16:19:47;;;;;;;21.75;9.82;;;;;;;;;;5021085;28;20099;-79
2021/10/25 16:25:07;;;;;;;23.00;10.82;;;;;;;;;;5009923;28;20045;-76